Time;durP1;ratioP1;P1;durP2;ratioP2;P2;SDS_P1;SDS_P2;PMS_P1;PMS_P2;Temp;Humidity;BMP_temperature;BMP_pressure;BME280_temperature;BME280_humidity;BME280_pressure;Samples;Min_cycle;Max_cycle;Signal;HPM_P1;HPM_P2
2023/08/30 00:01:43;;;;;;;10.75;5.07;;;;;;;;;;5090876;28;20087;-62
2023/08/30 00:04:10;;;;;;;10.20;4.85;;;;;;;;;;5078713;28;20095;-62
2023/08/30 00:06:36;;;;;;;7.25;4.68;;;;;;;;;;5075443;28;20116;-62
2023/08/30 00:09:03;;;;;;;9.23;4.72;;;;;;;;;;5070099;28;20567;-62
2023/08/30 00:11:30;;;;;;;8.80;5.57;;;;;;;;;;5070025;28;20127;-62
2023/08/30 00:14:03;;;;;;;8.07;5.15;;;;;;;;;;5078421;28;20048;-62
2023/08/30 00:16:29;;;;;;;6.50;4.85;;;;;;;;;;5090363;28;20144;-62
2023/08/30 00:18:56;;;;;;;11.38;5.55;;;;;;;;;;5089497;28;20044;-62
2023/08/30 00:21:22;;;;;;;7.45;5.25;;;;;;;;;;5090189;28;20127;-62
2023/08/30 00:23:48;;;;;;;6.93;5.10;;;;;;;;;;5088379;28;20044;-62
2023/08/30 00:26:15;;;;;;;11.55;6.22;;;;;;;;;;5089684;28;20036;-63
2023/08/30 00:28:41;;;;;;;10.60;5.93;;;;;;;;;;5089691;28;20044;-62
2023/08/30 00:31:08;;;;;;;7.40;5.00;;;;;;;;;;5089651;28;20419;-62
2023/08/30 00:33:34;;;;;;;7.05;4.88;;;;;;;;;;5084759;28;20496;-62
2023/08/30 00:36:01;;;;;;;8.68;5.47;;;;;;;;;;5069450;28;20068;-62
2023/08/30 00:38:27;;;;;;;6.85;4.82;;;;;;;;;;5082841;28;20044;-62
2023/08/30 00:40:54;;;;;;;8.25;5.07;;;;;;;;;;5089639;28;20039;-62
2023/08/30 00:43:20;;;;;;;7.50;4.80;;;;;;;;;;5089818;28;20551;-62
2023/08/30 00:45:47;;;;;;;7.47;4.50;;;;;;;;;;5090251;28;20135;-62
2023/08/30 00:48:15;;;;;;;7.00;5.03;;;;;;;;;;5090047;28;20553;-63
2023/08/30 00:50:42;;;;;;;6.47;4.93;;;;;;;;;;5090237;28;20113;-62
2023/08/30 00:53:10;;;;;;;10.40;4.63;;;;;;;;;;5089814;28;20105;-62
2023/08/30 00:55:37;;;;;;;6.50;4.60;;;;;;;;;;5089593;28;20072;-62
2023/08/30 00:58:04;;;;;;;7.30;5.05;;;;;;;;;;5089444;28;20131;-62
2023/08/30 01:00:30;;;;;;;11.13;5.35;;;;;;;;;;5086645;28;20064;-62
2023/08/30 01:02:57;;;;;;;8.88;5.47;;;;;;;;;;5072632;28;20037;-62
2023/08/30 01:05:24;;;;;;;7.78;5.28;;;;;;;;;;5070223;28;20057;-62
2023/08/30 01:07:51;;;;;;;9.05;5.07;;;;;;;;;;5076689;28;20097;-62
2023/08/30 01:10:18;;;;;;;12.32;5.65;;;;;;;;;;5089757;28;20048;-62
2023/08/30 01:12:54;;;;;;;9.77;4.50;;;;;;;;;;5089028;28;20044;-63
2023/08/30 01:15:22;;;;;;;9.90;5.88;;;;;;;;;;5089258;28;20079;-63
2023/08/30 01:17:50;;;;;;;7.78;5.70;;;;;;;;;;5088984;28;20040;-62
2023/08/30 01:20:18;;;;;;;6.15;4.88;;;;;;;;;;5089355;28;20044;-62
2023/08/30 01:22:54;;;;;;;10.20;5.50;;;;;;;;;;5089119;28;20067;-62
2023/08/30 01:25:29;;;;;;;8.98;5.40;;;;;;;;;;5088884;28;20051;-62
2023/08/30 01:27:56;;;;;;;7.45;5.43;;;;;;;;;;5089038;28;20495;-62
2023/08/30 01:30:24;;;;;;;10.10;5.78;;;;;;;;;;5087645;28;20123;-62
2023/08/30 01:32:51;;;;;;;11.23;5.60;;;;;;;;;;5087613;28;20070;-62
2023/08/30 01:35:19;;;;;;;7.28;5.57;;;;;;;;;;5088845;28;20506;-62
2023/08/30 01:37:46;;;;;;;8.88;6.13;;;;;;;;;;5075364;28;20724;-62
2023/08/30 01:40:14;;;;;;;6.72;4.75;;;;;;;;;;5084090;28;20785;-62
2023/08/30 01:42:44;;;;;;;9.02;5.25;;;;;;;;;;5088525;28;20040;-62
2023/08/30 01:45:13;;;;;;;6.30;4.85;;;;;;;;;;5088550;28;20185;-62
2023/08/30 01:47:40;;;;;;;6.32;5.15;;;;;;;;;;5088687;28;20040;-62
2023/08/30 01:50:07;;;;;;;7.43;5.40;;;;;;;;;;5088652;28;20366;-62
2023/08/30 01:52:34;;;;;;;11.85;5.63;;;;;;;;;;5088723;28;20067;-62
2023/08/30 01:55:02;;;;;;;12.77;6.38;;;;;;;;;;5088802;28;20539;-62
2023/08/30 01:57:28;;;;;;;11.05;6.57;;;;;;;;;;5070609;28;20476;-62
2023/08/30 01:59:54;;;;;;;7.63;6.07;;;;;;;;;;5089453;28;20067;-62
2023/08/30 02:02:21;;;;;;;7.10;5.47;;;;;;;;;;5088596;28;20040;-62
2023/08/30 02:04:47;;;;;;;7.63;5.80;;;;;;;;;;5089175;28;20047;-62
2023/08/30 02:07:17;;;;;;;8.13;5.68;;;;;;;;;;5089128;28;20044;-62
2023/08/30 02:09:53;;;;;;;10.18;5.50;;;;;;;;;;5088417;28;20048;-62
2023/08/30 02:12:21;;;;;;;8.40;5.88;;;;;;;;;;5087755;28;20040;-62
2023/08/30 02:14:48;;;;;;;6.10;4.90;;;;;;;;;;5088256;28;20050;-63
2023/08/30 02:17:15;;;;;;;6.93;5.10;;;;;;;;;;5088261;28;20040;-62
2023/08/30 02:19:43;;;;;;;11.30;6.38;;;;;;;;;;5089107;28;20076;-62
2023/08/30 02:22:10;;;;;;;7.63;5.85;;;;;;;;;;5087691;28;20044;-62
2023/08/30 02:24:36;;;;;;;9.10;5.88;;;;;;;;;;5086816;28;20066;-62
2023/08/30 02:27:03;;;;;;;9.23;6.70;;;;;;;;;;5088113;28;20463;-62
2023/08/30 02:29:30;;;;;;;7.72;6.38;;;;;;;;;;5087865;28;20130;-62
2023/08/30 02:31:56;;;;;;;10.35;6.85;;;;;;;;;;5088102;28;20036;-62
2023/08/30 02:34:22;;;;;;;10.38;7.38;;;;;;;;;;5088083;28;20098;-62
2023/08/30 02:36:49;;;;;;;12.00;6.75;;;;;;;;;;5088051;28;20127;-62
2023/08/30 02:39:15;;;;;;;8.95;6.65;;;;;;;;;;5088397;28;20440;-62
2023/08/30 02:41:42;;;;;;;9.82;7.28;;;;;;;;;;5088666;28;20079;-62
2023/08/30 02:44:10;;;;;;;11.10;7.85;;;;;;;;;;5088246;28;20539;-62
2023/08/30 02:46:37;;;;;;;12.38;7.90;;;;;;;;;;5100163;28;20673;-62
2023/08/30 02:49:04;;;;;;;10.50;8.10;;;;;;;;;;5077826;28;20040;-64
2023/08/30 02:51:31;;;;;;;11.48;7.82;;;;;;;;;;5078680;28;20045;-63
2023/08/30 02:53:58;;;;;;;9.98;7.85;;;;;;;;;;5081511;28;20075;-63
2023/08/30 02:56:25;;;;;;;9.70;7.63;;;;;;;;;;5087881;28;20127;-63
2023/08/30 02:58:51;;;;;;;12.27;7.78;;;;;;;;;;5085754;28;20040;-62
2023/08/30 03:01:18;;;;;;;12.40;7.10;;;;;;;;;;5068565;28;20037;-62
2023/08/30 03:03:45;;;;;;;15.05;7.43;;;;;;;;;;5084774;28;20048;-62
2023/08/30 03:06:12;;;;;;;10.43;6.95;;;;;;;;;;5067809;28;20139;-62
2023/08/30 03:08:38;;;;;;;9.40;6.60;;;;;;;;;;5067517;28;20068;-62
2023/08/30 03:11:08;;;;;;;8.57;6.95;;;;;;;;;;5067376;28;20564;-66
2023/08/30 03:13:36;;;;;;;11.10;7.77;;;;;;;;;;5067094;28;20131;-62
2023/08/30 03:16:11;;;;;;;8.48;7.07;;;;;;;;;;5067215;28;20134;-62
2023/08/30 03:18:38;;;;;;;9.95;7.65;;;;;;;;;;5067668;28;20562;-62
2023/08/30 03:21:04;;;;;;;11.10;7.43;;;;;;;;;;5067967;28;20080;-62
2023/08/30 03:23:31;;;;;;;13.27;7.15;;;;;;;;;;5067491;28;20120;-62
2023/08/30 03:25:58;;;;;;;10.57;7.20;;;;;;;;;;5070982;28;20063;-62
2023/08/30 03:28:25;;;;;;;9.93;6.97;;;;;;;;;;5071009;28;20044;-62
2023/08/30 03:30:51;;;;;;;10.88;6.70;;;;;;;;;;5071348;28;20080;-62
2023/08/30 03:33:18;;;;;;;11.98;7.35;;;;;;;;;;5070988;28;20041;-62
2023/08/30 03:35:44;;;;;;;9.27;6.80;;;;;;;;;;5070993;28;20087;-62
2023/08/30 03:38:10;;;;;;;10.35;6.65;;;;;;;;;;5070846;28;20067;-62
2023/08/30 03:40:39;;;;;;;13.10;7.25;;;;;;;;;;5071057;28;20101;-62
2023/08/30 03:43:05;;;;;;;11.85;7.15;;;;;;;;;;5070445;28;20098;-62
2023/08/30 03:45:35;;;;;;;15.77;7.65;;;;;;;;;;5071166;28;20045;-63
2023/08/30 03:48:03;;;;;;;13.38;7.30;;;;;;;;;;5070963;28;20095;-62
2023/08/30 03:50:29;;;;;;;14.10;8.32;;;;;;;;;;5071055;28;20048;-62
2023/08/30 03:52:56;;;;;;;10.85;7.60;;;;;;;;;;5070894;28;20655;-62
2023/08/30 03:55:22;;;;;;;12.05;7.65;;;;;;;;;;5070566;28;20160;-62
2023/08/30 03:57:49;;;;;;;10.25;7.40;;;;;;;;;;5070801;28;20037;-62
2023/08/30 04:00:15;;;;;;;9.15;7.38;;;;;;;;;;5086700;28;20688;-62
2023/08/30 04:02:44;;;;;;;10.82;7.45;;;;;;;;;;5090697;28;20127;-62
2023/08/30 04:05:10;;;;;;;10.88;7.00;;;;;;;;;;5090194;28;20448;-62
2023/08/30 04:07:37;;;;;;;11.43;7.68;;;;;;;;;;5091027;28;20081;-67
2023/08/30 04:10:06;;;;;;;12.82;8.02;;;;;;;;;;5091631;28;20059;-62
2023/08/30 04:12:34;;;;;;;14.88;8.98;;;;;;;;;;5091108;28;20131;-62
2023/08/30 04:15:01;;;;;;;12.13;8.70;;;;;;;;;;5090313;28;20610;-62
2023/08/30 04:17:28;;;;;;;11.45;8.70;;;;;;;;;;5090123;28;20100;-62
2023/08/30 04:19:54;;;;;;;10.85;8.43;;;;;;;;;;5090415;28;20642;-62
2023/08/30 04:22:21;;;;;;;11.85;8.13;;;;;;;;;;5089918;28;20066;-62
2023/08/30 04:24:48;;;;;;;12.10;8.13;;;;;;;;;;5090433;28;20094;-66
2023/08/30 04:27:15;;;;;;;11.13;8.40;;;;;;;;;;5090132;28;20140;-62
2023/08/30 04:29:44;;;;;;;11.23;7.20;;;;;;;;;;5090941;28;20539;-62
2023/08/30 04:32:11;;;;;;;12.60;7.15;;;;;;;;;;5090592;28;20473;-62
2023/08/30 04:34:38;;;;;;;9.80;7.97;;;;;;;;;;5091028;28;20119;-64
2023/08/30 04:37:04;;;;;;;10.07;7.95;;;;;;;;;;5090352;28;20131;-62
2023/08/30 04:39:30;;;;;;;10.25;7.18;;;;;;;;;;5090263;28;20046;-62
2023/08/30 04:41:57;;;;;;;9.95;7.18;;;;;;;;;;5089622;28;20078;-62
2023/08/30 04:44:24;;;;;;;10.07;7.53;;;;;;;;;;5089898;28;20326;-62
2023/08/30 04:46:52;;;;;;;10.60;6.97;;;;;;;;;;5090048;28;20052;-62
2023/08/30 04:49:19;;;;;;;10.02;7.25;;;;;;;;;;5089272;28;20050;-62
2023/08/30 04:51:45;;;;;;;13.27;8.48;;;;;;;;;;5089572;28;20035;-62
2023/08/30 04:54:11;;;;;;;12.13;7.57;;;;;;;;;;5089932;28;20044;-62
2023/08/30 04:56:38;;;;;;;14.15;9.15;;;;;;;;;;5090141;28;20090;-62
2023/08/30 04:59:04;;;;;;;13.32;7.80;;;;;;;;;;5089292;28;20066;-62
2023/08/30 05:01:31;;;;;;;13.07;9.95;;;;;;;;;;5089895;28;20097;-62
2023/08/30 05:03:57;;;;;;;12.77;8.75;;;;;;;;;;5089786;28;20127;-62
2023/08/30 05:06:24;;;;;;;13.23;8.75;;;;;;;;;;5089558;28;20058;-62
2023/08/30 05:08:50;;;;;;;10.55;7.82;;;;;;;;;;5089098;28;20050;-62
2023/08/30 05:11:17;;;;;;;11.02;8.23;;;;;;;;;;5089401;28;20050;-63
2023/08/30 05:13:43;;;;;;;12.88;8.38;;;;;;;;;;5089120;28;20127;-62
2023/08/30 05:16:10;;;;;;;10.00;8.27;;;;;;;;;;5089672;28;20050;-62
2023/08/30 05:18:36;;;;;;;10.57;8.98;;;;;;;;;;5089686;28;20075;-62
2023/08/30 05:21:03;;;;;;;17.10;8.85;;;;;;;;;;5089432;28;20097;-62
2023/08/30 05:23:30;;;;;;;9.90;7.68;;;;;;;;;;5088904;28;20037;-63
2023/08/30 05:25:56;;;;;;;9.07;7.38;;;;;;;;;;5089049;28;20039;-62
2023/08/30 05:28:23;;;;;;;13.02;8.27;;;;;;;;;;5089249;28;20080;-62
2023/08/30 05:30:49;;;;;;;12.45;7.43;;;;;;;;;;5088952;28;20135;-63
2023/08/30 05:33:16;;;;;;;13.27;8.50;;;;;;;;;;5088627;28;20551;-62
2023/08/30 05:35:42;;;;;;;8.68;7.63;;;;;;;;;;5088949;28;20075;-62
2023/08/30 05:38:08;;;;;;;10.68;7.97;;;;;;;;;;5088794;28;20071;-62
2023/08/30 05:40:36;;;;;;;7.93;6.82;;;;;;;;;;5089087;28;20048;-62
2023/08/30 05:43:03;;;;;;;8.82;7.32;;;;;;;;;;5088954;28;20106;-62
2023/08/30 05:45:29;;;;;;;13.73;7.65;;;;;;;;;;5088613;28;20542;-62
2023/08/30 05:47:56;;;;;;;9.60;7.20;;;;;;;;;;5088038;28;20077;-62
2023/08/30 05:50:22;;;;;;;10.95;7.82;;;;;;;;;;5088536;28;20071;-62
2023/08/30 05:52:49;;;;;;;11.40;7.88;;;;;;;;;;5088740;28;20040;-62
2023/08/30 05:55:15;;;;;;;10.18;7.00;;;;;;;;;;5088531;28;20044;-62
2023/08/30 05:57:41;;;;;;;8.85;7.70;;;;;;;;;;5088537;28;20139;-62
2023/08/30 06:00:08;;;;;;;9.82;7.50;;;;;;;;;;5088320;28;20123;-62
2023/08/30 06:02:35;;;;;;;11.73;7.07;;;;;;;;;;5088739;28;20135;-62
2023/08/30 06:05:02;;;;;;;7.70;6.38;;;;;;;;;;5088239;28;20126;-63
2023/08/30 06:07:30;;;;;;;8.75;6.57;;;;;;;;;;5088609;28;20513;-62
2023/08/30 06:09:56;;;;;;;8.80;6.45;;;;;;;;;;5088395;28;20036;-62
2023/08/30 06:12:25;;;;;;;12.85;7.70;;;;;;;;;;5088240;28;20150;-62
2023/08/30 06:14:52;;;;;;;10.20;6.63;;;;;;;;;;5088538;28;20039;-62
2023/08/30 06:17:18;;;;;;;6.40;5.63;;;;;;;;;;5088158;28;20556;-62
2023/08/30 06:19:45;;;;;;;10.43;5.65;;;;;;;;;;5088365;28;20075;-62
2023/08/30 06:22:12;;;;;;;7.03;5.53;;;;;;;;;;5088241;28;20048;-62
2023/08/30 06:24:38;;;;;;;8.10;6.15;;;;;;;;;;5088387;28;20135;-62
2023/08/30 06:27:05;;;;;;;7.60;5.45;;;;;;;;;;5088469;28;20054;-62
2023/08/30 06:29:31;;;;;;;8.05;5.75;;;;;;;;;;5088128;28;20118;-62
2023/08/30 06:31:58;;;;;;;5.78;5.15;;;;;;;;;;5088129;28;20040;-62
2023/08/30 06:34:25;;;;;;;8.02;6.18;;;;;;;;;;5087943;28;20040;-62
2023/08/30 06:36:51;;;;;;;10.20;6.38;;;;;;;;;;5087838;28;20122;-62
2023/08/30 06:39:17;;;;;;;11.98;6.47;;;;;;;;;;5087598;28;20527;-62
2023/08/30 06:41:44;;;;;;;10.20;7.10;;;;;;;;;;5087708;28;20534;-62
2023/08/30 06:44:10;;;;;;;10.43;6.28;;;;;;;;;;5087710;28;20079;-62
2023/08/30 06:46:37;;;;;;;9.38;6.68;;;;;;;;;;5088498;28;20078;-62
2023/08/30 06:49:04;;;;;;;10.95;6.90;;;;;;;;;;5069905;28;20717;-62
2023/08/30 06:51:31;;;;;;;10.20;6.88;;;;;;;;;;5087967;28;20066;-63
2023/08/30 06:54:00;;;;;;;10.82;7.32;;;;;;;;;;5086484;28;20043;-62
2023/08/30 06:56:27;;;;;;;9.05;7.10;;;;;;;;;;5087777;28;20059;-62
2023/08/30 06:58:53;;;;;;;8.30;7.00;;;;;;;;;;5070207;28;20044;-63
2023/08/30 07:01:19;;;;;;;9.65;6.35;;;;;;;;;;5091051;28;20040;-62
2023/08/30 07:03:46;;;;;;;10.32;6.50;;;;;;;;;;5091617;28;20052;-64
2023/08/30 07:06:12;;;;;;;9.77;6.80;;;;;;;;;;5076163;28;20119;-63
2023/08/30 07:08:39;;;;;;;8.35;6.50;;;;;;;;;;5091025;28;20044;-62
2023/08/30 07:11:06;;;;;;;9.63;6.28;;;;;;;;;;5092035;28;20043;-63
2023/08/30 07:13:45;;;;;;;15.20;6.65;;;;;;;;;;5075866;28;20155;-63
2023/08/30 07:16:11;;;;;;;11.43;5.93;;;;;;;;;;5091201;28;20387;-64
2023/08/30 07:18:39;;;;;;;7.40;6.25;;;;;;;;;;5073426;28;20430;-65
2023/08/30 07:21:06;;;;;;;7.78;5.97;;;;;;;;;;5091381;28;20047;-63
2023/08/30 07:23:32;;;;;;;7.30;5.70;;;;;;;;;;5091403;28;20082;-64
2023/08/30 07:25:58;;;;;;;8.52;6.30;;;;;;;;;;5091208;28;20044;-63
2023/08/30 07:28:25;;;;;;;8.75;5.10;;;;;;;;;;5091822;28;20086;-63
2023/08/30 07:30:51;;;;;;;12.30;5.35;;;;;;;;;;5091568;28;20043;-64
2023/08/30 07:33:18;;;;;;;7.82;5.10;;;;;;;;;;5092078;28;20127;-63
2023/08/30 07:35:44;;;;;;;8.02;4.80;;;;;;;;;;5091623;28;20075;-62
2023/08/30 07:38:11;;;;;;;5.60;4.95;;;;;;;;;;5090669;28;20135;-64
2023/08/30 07:40:37;;;;;;;6.40;4.90;;;;;;;;;;5090711;28;20076;-62
2023/08/30 07:43:04;;;;;;;8.18;5.20;;;;;;;;;;5089785;28;20044;-63
2023/08/30 07:45:30;;;;;;;6.10;4.43;;;;;;;;;;5090363;28;20044;-63
2023/08/30 07:47:57;;;;;;;5.63;4.45;;;;;;;;;;5076991;28;20498;-63
2023/08/30 07:50:24;;;;;;;10.93;5.13;;;;;;;;;;5098678;28;20044;-62
2023/08/30 07:52:50;;;;;;;5.03;4.20;;;;;;;;;;5090376;28;20046;-63
2023/08/30 07:55:17;;;;;;;9.80;4.53;;;;;;;;;;5091017;28;20741;-62
2023/08/30 07:57:43;;;;;;;7.72;4.10;;;;;;;;;;5090421;28;20130;-63
2023/08/30 08:00:10;;;;;;;6.43;4.18;;;;;;;;;;5090281;28;20072;-63
2023/08/30 08:02:36;;;;;;;11.90;6.00;;;;;;;;;;5089979;28;20044;-63
2023/08/30 08:05:03;;;;;;;8.02;4.18;;;;;;;;;;5090093;28;20447;-63
2023/08/30 08:07:29;;;;;;;4.32;3.30;;;;;;;;;;5072306;28;20131;-64
2023/08/30 08:09:56;;;;;;;6.90;3.92;;;;;;;;;;5090023;28;20139;-64
2023/08/30 08:12:23;;;;;;;7.30;4.30;;;;;;;;;;5081615;28;20044;-64
2023/08/30 08:14:49;;;;;;;7.90;4.32;;;;;;;;;;5071725;28;20040;-63
2023/08/30 08:17:16;;;;;;;6.60;4.55;;;;;;;;;;5090140;28;20127;-64
2023/08/30 08:19:43;;;;;;;7.63;4.38;;;;;;;;;;5078876;28;20072;-63
2023/08/30 08:22:10;;;;;;;7.32;4.40;;;;;;;;;;5069798;28;20040;-63
2023/08/30 08:24:36;;;;;;;7.15;5.15;;;;;;;;;;5081330;28;20074;-62
2023/08/30 08:27:05;;;;;;;4.78;3.40;;;;;;;;;;5089765;28;20071;-63
2023/08/30 08:29:31;;;;;;;13.75;4.55;;;;;;;;;;5089291;28;20062;-63
2023/08/30 08:31:58;;;;;;;5.93;4.55;;;;;;;;;;5089047;28;20465;-63
2023/08/30 08:34:24;;;;;;;5.10;4.38;;;;;;;;;;5089362;28;20255;-63
2023/08/30 08:36:51;;;;;;;8.98;5.95;;;;;;;;;;5089327;28;20071;-63
2023/08/30 08:39:18;;;;;;;9.57;6.07;;;;;;;;;;5089549;28;20167;-63
2023/08/30 08:41:45;;;;;;;6.45;5.00;;;;;;;;;;5089616;28;20135;-63
2023/08/30 08:44:12;;;;;;;9.40;5.20;;;;;;;;;;5089672;28;20047;-62
2023/08/30 08:46:40;;;;;;;6.28;4.43;;;;;;;;;;5089141;28;20105;-63
2023/08/30 08:49:13;;;;;;;7.38;5.30;;;;;;;;;;5089137;28;20071;-63
2023/08/30 08:51:40;;;;;;;9.50;4.35;;;;;;;;;;5088865;28;20051;-65
2023/08/30 08:54:08;;;;;;;4.60;3.90;;;;;;;;;;5089013;28;20123;-65
2023/08/30 08:56:35;;;;;;;5.25;4.15;;;;;;;;;;5088188;28;20492;-64
2023/08/30 08:59:02;;;;;;;6.80;3.80;;;;;;;;;;5089106;28;20128;-65
2023/08/30 09:01:29;;;;;;;5.85;4.15;;;;;;;;;;5089247;28;20531;-63
2023/08/30 09:04:11;;;;;;;5.53;4.10;;;;;;;;;;5089234;28;20489;-65
2023/08/30 09:06:39;;;;;;;6.05;3.58;;;;;;;;;;5070994;28;20105;-66
2023/08/30 09:09:08;;;;;;;6.30;4.45;;;;;;;;;;5088478;28;20523;-67
2023/08/30 09:11:35;;;;;;;6.75;3.60;;;;;;;;;;5088180;28;20046;-66
2023/08/30 09:14:17;;;;;;;7.82;2.72;;;;;;;;;;5088124;28;20040;-65
2023/08/30 09:16:53;;;;;;;4.57;3.20;;;;;;;;;;5088616;28;20475;-64
2023/08/30 09:19:20;;;;;;;6.68;3.15;;;;;;;;;;5079758;28;20071;-63
2023/08/30 09:21:53;;;;;;;5.65;3.10;;;;;;;;;;5067428;28;20040;-63
2023/08/30 09:24:20;;;;;;;6.90;2.75;;;;;;;;;;5083546;28;20036;-65
2023/08/30 09:26:47;;;;;;;4.63;2.95;;;;;;;;;;5088786;28;20089;-65
2023/08/30 09:29:13;;;;;;;4.00;1.90;;;;;;;;;;5088257;28;20426;-65
2023/08/30 09:31:41;;;;;;;3.25;2.08;;;;;;;;;;5084107;28;20046;-66
2023/08/30 09:34:08;;;;;;;3.78;2.80;;;;;;;;;;5086600;28;20547;-66
2023/08/30 09:36:35;;;;;;;6.13;2.05;;;;;;;;;;5090941;28;20036;-65
2023/08/30 09:39:06;;;;;;;5.78;2.55;;;;;;;;;;5094534;28;20435;-67
2023/08/30 09:41:33;;;;;;;7.50;2.30;;;;;;;;;;5075832;28;20824;-66
2023/08/30 09:44:00;;;;;;;5.93;2.50;;;;;;;;;;5094910;28;20441;-65
2023/08/30 09:47:05;;;;;;;6.03;3.20;;;;;;;;;;5092307;28;20059;-66
2023/08/30 09:49:38;;;;;;;9.68;4.28;;;;;;;;;;5088508;28;20070;-68
2023/08/30 09:52:08;;;;;;;4.50;2.38;;;;;;;;;;5091210;28;20176;-67
2023/08/30 09:54:35;;;;;;;7.03;2.33;;;;;;;;;;5092587;28;20100;-65
2023/08/30 09:57:05;;;;;;;;;;;;;;;;;;5093993;28;20055;-66
2023/08/30 09:59:32;;;;;;;9.98;4.35;;;;;;;;;;5092409;28;20318;-65
2023/08/30 10:02:02;;;;;;;10.02;3.80;;;;;;;;;;5095330;28;20092;-67
2023/08/30 10:04:29;;;;;;;3.58;1.75;;;;;;;;;;5073029;28;20097;-70
2023/08/30 10:06:57;;;;;;;3.42;1.35;;;;;;;;;;5095282;28;20056;-67
2023/08/30 10:09:24;;;;;;;6.88;1.85;;;;;;;;;;5092663;28;20125;-68
2023/08/30 10:11:51;;;;;;;5.25;2.22;;;;;;;;;;5092163;28;20180;-66
2023/08/30 10:14:17;;;;;;;4.78;1.88;;;;;;;;;;5093593;28;20067;-68
2023/08/30 10:16:44;;;;;;;4.05;1.90;;;;;;;;;;5092922;28;20071;-67
2023/08/30 10:19:14;;;;;;;1.70;1.20;;;;;;;;;;5092734;28;20059;-66
2023/08/30 10:21:43;;;;;;;4.22;1.90;;;;;;;;;;5088872;28;20138;-63
2023/08/30 10:24:12;;;;;;;3.95;1.65;;;;;;;;;;5069503;28;20039;-64
2023/08/30 10:27:00;;;;;;;3.47;2.58;;;;;;;;;;5093343;28;20048;-64
2023/08/30 10:29:27;;;;;;;3.33;2.10;;;;;;;;;;5092388;28;20136;-63
2023/08/30 10:31:54;;;;;;;6.72;2.22;;;;;;;;;;5091438;28;20705;-63
2023/08/30 10:34:21;;;;;;;2.58;1.50;;;;;;;;;;5091148;28;20488;-63
2023/08/30 10:36:58;;;;;;;3.35;2.00;;;;;;;;;;5097206;28;20116;-66
2023/08/30 10:39:32;;;;;;;4.80;2.00;;;;;;;;;;5094859;28;20155;-65
2023/08/30 10:41:58;;;;;;;7.50;2.72;;;;;;;;;;5094825;28;20154;-66
2023/08/30 10:44:25;;;;;;;6.75;1.98;;;;;;;;;;5092793;28;20122;-67
2023/08/30 10:46:52;;;;;;;5.55;1.80;;;;;;;;;;5093687;28;20036;-65
2023/08/30 10:49:19;;;;;;;3.70;2.22;;;;;;;;;;5091532;28;20067;-65
2023/08/30 10:51:53;;;;;;;4.63;1.58;;;;;;;;;;5072670;28;20634;-68
2023/08/30 10:54:21;;;;;;;3.42;1.35;;;;;;;;;;5092181;28;20135;-69
2023/08/30 10:56:59;;;;;;;3.25;1.75;;;;;;;;;;5095207;28;21132;-68
2023/08/30 10:59:26;;;;;;;7.90;2.05;;;;;;;;;;5095694;28;20081;-68
2023/08/30 11:01:52;;;;;;;2.55;1.20;;;;;;;;;;5095096;28;20098;-67
2023/08/30 11:04:19;;;;;;;3.70;1.60;;;;;;;;;;5095483;28;20048;-67
2023/08/30 11:06:46;;;;;;;5.85;1.75;;;;;;;;;;5095903;28;20078;-68
2023/08/30 11:09:20;;;;;;;4.32;1.30;;;;;;;;;;5094303;28;20779;-68
2023/08/30 11:11:47;;;;;;;5.47;1.63;;;;;;;;;;5093650;28;20083;-69
2023/08/30 11:14:13;;;;;;;4.68;1.77;;;;;;;;;;5093449;28;20533;-68
2023/08/30 11:16:40;;;;;;;2.50;1.30;;;;;;;;;;5094857;28;20191;-66
2023/08/30 11:19:08;;;;;;;3.75;1.50;;;;;;;;;;5093832;28;20504;-68
2023/08/30 11:21:36;;;;;;;4.57;1.80;;;;;;;;;;5095016;28;20039;-66
2023/08/30 11:24:06;;;;;;;4.00;1.50;;;;;;;;;;5094042;28;20126;-67
2023/08/30 11:26:33;;;;;;;4.10;1.73;;;;;;;;;;5092807;28;20052;-67
2023/08/30 11:29:08;;;;;;;4.68;1.77;;;;;;;;;;5089246;28;20199;-66
2023/08/30 11:31:35;;;;;;;3.95;1.50;;;;;;;;;;5089837;28;20052;-69
2023/08/30 11:34:02;;;;;;;5.20;2.15;;;;;;;;;;5091276;28;20063;-66
2023/08/30 11:36:29;;;;;;;2.75;1.42;;;;;;;;;;5093633;28;20066;-67
2023/08/30 11:38:56;;;;;;;3.75;2.40;;;;;;;;;;5093016;28;20142;-70
2023/08/30 11:41:23;;;;;;;5.90;2.20;;;;;;;;;;5091852;28;20098;-67
2023/08/30 11:43:50;;;;;;;10.68;2.05;;;;;;;;;;5096166;28;20050;-65
2023/08/30 11:46:17;;;;;;;6.22;2.88;;;;;;;;;;5093418;28;20131;-65
2023/08/30 11:48:44;;;;;;;8.07;1.58;;;;;;;;;;5094684;28;20490;-66
2023/08/30 11:51:10;;;;;;;3.45;1.63;;;;;;;;;;5090736;28;20060;-65
2023/08/30 11:53:38;;;;;;;3.67;1.48;;;;;;;;;;5095029;28;20589;-66
2023/08/30 11:56:07;;;;;;;3.58;1.98;;;;;;;;;;5092042;28;20063;-66
2023/08/30 11:58:34;;;;;;;5.43;2.45;;;;;;;;;;5094214;28;20087;-65
2023/08/30 12:01:01;;;;;;;6.13;1.60;;;;;;;;;;5093572;28;20119;-65
2023/08/30 12:03:28;;;;;;;4.40;2.03;;;;;;;;;;5076191;28;20062;-64
2023/08/30 12:05:55;;;;;;;3.75;2.00;;;;;;;;;;5090696;28;20535;-67
2023/08/30 12:08:26;;;;;;;3.58;1.52;;;;;;;;;;5095016;28;20044;-68
2023/08/30 12:10:52;;;;;;;3.85;2.10;;;;;;;;;;5075220;28;20056;-66
2023/08/30 12:13:29;;;;;;;4.07;2.60;;;;;;;;;;5094235;28;20147;-66
2023/08/30 12:15:56;;;;;;;2.67;1.90;;;;;;;;;;5088889;28;20036;-67
2023/08/30 12:18:24;;;;;;;4.65;1.70;;;;;;;;;;5094233;28;20621;-65
2023/08/30 12:20:57;;;;;;;5.00;2.13;;;;;;;;;;5092483;28;20097;-65
2023/08/30 12:23:24;;;;;;;4.40;1.55;;;;;;;;;;5089912;28;20160;-67
2023/08/30 12:26:04;;;;;;;2.90;1.90;;;;;;;;;;5093261;28;20052;-66
2023/08/30 12:28:32;;;;;;;2.92;1.80;;;;;;;;;;5092982;28;20044;-65
2023/08/30 12:30:58;;;;;;;3.90;1.98;;;;;;;;;;5089565;28;20649;-64
2023/08/30 12:33:30;;;;;;;3.33;1.75;;;;;;;;;;5092497;28;20044;-67
2023/08/30 12:35:57;;;;;;;2.58;1.58;;;;;;;;;;5092351;28;20051;-66
2023/08/30 12:38:24;;;;;;;5.53;1.60;;;;;;;;;;5092675;28;20048;-64
2023/08/30 12:40:51;;;;;;;5.40;1.80;;;;;;;;;;5093771;28;20126;-65
2023/08/30 12:43:18;;;;;;;2.95;1.90;;;;;;;;;;5091461;28;20122;-67
2023/08/30 12:45:44;;;;;;;3.65;1.70;;;;;;;;;;5094743;28;20203;-66
2023/08/30 12:48:12;;;;;;;3.92;1.60;;;;;;;;;;5093851;28;20041;-68
2023/08/30 12:50:38;;;;;;;2.65;1.83;;;;;;;;;;5095571;28;20047;-67
2023/08/30 12:53:05;;;;;;;3.00;1.67;;;;;;;;;;5091941;28;20071;-66
2023/08/30 12:55:36;;;;;;;3.00;1.75;;;;;;;;;;5094878;28;20044;-67
2023/08/30 12:58:02;;;;;;;5.28;1.92;;;;;;;;;;5094357;28;20126;-66
2023/08/30 13:00:29;;;;;;;5.65;2.00;;;;;;;;;;5091919;28;20098;-67
2023/08/30 13:02:55;;;;;;;3.85;1.40;;;;;;;;;;5089005;28;20036;-65
2023/08/30 13:05:22;;;;;;;2.47;1.50;;;;;;;;;;5086936;28;20059;-63
2023/08/30 13:07:49;;;;;;;2.88;1.50;;;;;;;;;;5082903;28;20119;-63
2023/08/30 13:10:16;;;;;;;3.38;1.45;;;;;;;;;;5088895;28;20051;-63
2023/08/30 13:12:43;;;;;;;2.83;1.23;;;;;;;;;;5085066;28;20052;-63
2023/08/30 13:15:10;;;;;;;2.10;1.40;;;;;;;;;;5092377;28;20045;-64
2023/08/30 13:17:36;;;;;;;4.38;1.70;;;;;;;;;;5082296;28;20052;-66
2023/08/30 13:20:03;;;;;;;2.80;1.10;;;;;;;;;;5086599;28;20044;-68
2023/08/30 13:22:30;;;;;;;1.98;1.33;;;;;;;;;;5092968;28;20054;-63
2023/08/30 13:24:56;;;;;;;3.65;1.30;;;;;;;;;;5090153;28;20089;-63
2023/08/30 13:27:23;;;;;;;4.18;1.42;;;;;;;;;;5085372;28;20626;-63
2023/08/30 13:29:49;;;;;;;5.35;1.90;;;;;;;;;;5090575;28;20760;-62
2023/08/30 13:32:16;;;;;;;3.78;1.38;;;;;;;;;;5074619;28;20120;-63
2023/08/30 13:34:45;;;;;;;2.83;1.20;;;;;;;;;;5088927;28;20460;-63
2023/08/30 13:37:12;;;;;;;3.42;1.50;;;;;;;;;;5086924;28;20117;-63
2023/08/30 13:39:42;;;;;;;2.10;1.10;;;;;;;;;;5074668;28;20071;-63
2023/08/30 13:42:08;;;;;;;4.93;1.30;;;;;;;;;;5085259;28;20040;-63
2023/08/30 13:44:37;;;;;;;5.68;3.80;;;;;;;;;;5090597;28;20062;-63
2023/08/30 13:47:04;;;;;;;3.88;1.20;;;;;;;;;;5085470;28;20040;-63
2023/08/30 13:49:31;;;;;;;5.25;1.67;;;;;;;;;;5074116;28;20133;-63
2023/08/30 13:51:57;;;;;;;2.75;1.50;;;;;;;;;;5057294;28;20121;-64
2023/08/30 13:54:24;;;;;;;5.72;2.47;;;;;;;;;;5078742;28;20036;-63
2023/08/30 13:56:51;;;;;;;4.72;1.67;;;;;;;;;;5079233;28;20039;-63
2023/08/30 13:59:17;;;;;;;3.58;1.17;;;;;;;;;;5093049;28;20124;-63
2023/08/30 14:01:44;;;;;;;3.67;1.13;;;;;;;;;;5084935;28;20050;-64
2023/08/30 14:04:10;;;;;;;8.32;4.78;;;;;;;;;;5057988;28;20043;-63
2023/08/30 14:06:37;;;;;;;3.72;1.80;;;;;;;;;;5079079;28;20128;-62
2023/08/30 14:09:04;;;;;;;4.13;2.13;;;;;;;;;;5084334;28;20159;-63
2023/08/30 14:11:31;;;;;;;3.33;1.20;;;;;;;;;;5095947;28;20040;-63
2023/08/30 14:13:57;;;;;;;7.03;3.75;;;;;;;;;;5084025;28;20071;-63
2023/08/30 14:16:24;;;;;;;2.28;1.30;;;;;;;;;;5084263;28;20064;-65
2023/08/30 14:18:59;;;;;;;1.83;1.00;;;;;;;;;;5084761;28;20039;-61
2023/08/30 14:21:27;;;;;;;2.65;1.30;;;;;;;;;;5086111;28;20116;-64
2023/08/30 14:23:54;;;;;;;1.85;1.17;;;;;;;;;;5086142;28;20123;-63
2023/08/30 14:26:20;;;;;;;4.18;1.35;;;;;;;;;;5096626;28;20120;-64
2023/08/30 14:28:47;;;;;;;2.13;0.90;;;;;;;;;;5088952;28;20393;-62
2023/08/30 14:31:14;;;;;;;2.47;1.70;;;;;;;;;;5100646;28;20043;-64
2023/08/30 14:33:44;;;;;;;2.42;1.33;;;;;;;;;;5095865;28;20039;-63
2023/08/30 14:36:11;;;;;;;1.60;0.82;;;;;;;;;;5097254;28;20043;-64
2023/08/30 14:38:38;;;;;;;7.30;1.95;;;;;;;;;;5087913;28;20048;-62
2023/08/30 14:41:04;;;;;;;4.40;1.65;;;;;;;;;;5102040;28;20036;-63
2023/08/30 14:43:31;;;;;;;2.05;1.30;;;;;;;;;;5085061;28;20044;-63